sensor_id;sensor_type;location;lat;lon;timestamp;noise_LAeq;noise_LA_min;noise_LA_max;noise_LA01;noise_LA95
67398;Laerm;57728;50.448;18.824;2023-06-26T00:00:09;34.19;32.89;36.99;;
67398;Laerm;57728;50.448;18.824;2023-06-26T00:02:10;34.21;32.88;36.35;;
67398;Laerm;57728;50.448;18.824;2023-06-26T00:04:11;34.21;32.92;36.21;;
67398;Laerm;57728;50.448;18.824;2023-06-26T00:06:15;34.23;32.80;36.79;;
67398;Laerm;57728;50.448;18.824;2023-06-26T00:08:16;34.23;32.85;36.33;;
67398;Laerm;57728;50.448;18.824;2023-06-26T00:10:18;34.21;33.04;36.48;;
67398;Laerm;57728;50.448;18.824;2023-06-26T00:12:19;34.20;32.63;36.67;;
67398;Laerm;57728;50.448;18.824;2023-06-26T00:14:20;34.19;32.89;36.78;;
67398;Laerm;57728;50.448;18.824;2023-06-26T00:16:22;34.19;32.97;36.27;;
67398;Laerm;57728;50.448;18.824;2023-06-26T00:18:23;34.22;32.97;36.10;;
67398;Laerm;57728;50.448;18.824;2023-06-26T00:20:24;34.22;32.87;36.37;;
67398;Laerm;57728;50.448;18.824;2023-06-26T00:22:26;34.20;33.03;36.46;;
67398;Laerm;57728;50.448;18.824;2023-06-26T00:24:27;34.20;33.08;36.11;;
67398;Laerm;57728;50.448;18.824;2023-06-26T00:26:29;34.21;32.78;36.61;;
67398;Laerm;57728;50.448;18.824;2023-06-26T00:28:30;34.20;32.51;36.20;;
67398;Laerm;57728;50.448;18.824;2023-06-26T00:30:32;34.19;32.82;36.54;;
67398;Laerm;57728;50.448;18.824;2023-06-26T00:32:33;34.19;33.01;36.15;;
67398;Laerm;57728;50.448;18.824;2023-06-26T00:34:38;34.19;33.01;37.11;;
67398;Laerm;57728;50.448;18.824;2023-06-26T00:36:39;34.20;32.93;37.10;;
67398;Laerm;57728;50.448;18.824;2023-06-26T00:38:40;34.21;33.05;35.93;;
67398;Laerm;57728;50.448;18.824;2023-06-26T00:40:42;34.34;33.04;36.42;;
67398;Laerm;57728;50.448;18.824;2023-06-26T00:42:43;34.19;32.99;36.50;;
67398;Laerm;57728;50.448;18.824;2023-06-26T00:44:44;34.81;33.09;38.35;;
67398;Laerm;57728;50.448;18.824;2023-06-26T00:46:46;34.21;32.94;36.80;;
67398;Laerm;57728;50.448;18.824;2023-06-26T00:48:48;34.20;32.68;36.32;;
67398;Laerm;57728;50.448;18.824;2023-06-26T00:50:50;34.20;32.71;36.28;;
67398;Laerm;57728;50.448;18.824;2023-06-26T00:52:52;34.21;32.84;36.52;;
67398;Laerm;57728;50.448;18.824;2023-06-26T00:54:56;34.20;32.90;36.09;;
67398;Laerm;57728;50.448;18.824;2023-06-26T00:56:57;34.20;32.82;36.63;;
67398;Laerm;57728;50.448;18.824;2023-06-26T00:58:59;34.21;32.98;36.70;;
67398;Laerm;57728;50.448;18.824;2023-06-26T01:01:01;34.20;32.76;36.48;;
67398;Laerm;57728;50.448;18.824;2023-06-26T01:03:04;34.20;33.07;36.67;;
67398;Laerm;57728;50.448;18.824;2023-06-26T01:05:07;34.21;33.01;36.51;;
67398;Laerm;57728;50.448;18.824;2023-06-26T01:07:10;34.21;33.01;36.15;;
67398;Laerm;57728;50.448;18.824;2023-06-26T01:09:11;34.22;33.08;36.60;;
67398;Laerm;57728;50.448;18.824;2023-06-26T01:11:14;34.24;33.14;36.00;;
67398;Laerm;57728;50.448;18.824;2023-06-26T01:13:17;34.20;32.83;36.53;;
67398;Laerm;57728;50.448;18.824;2023-06-26T01:15:19;34.21;32.93;36.94;;
67398;Laerm;57728;50.448;18.824;2023-06-26T01:17:21;34.25;32.87;36.09;;
67398;Laerm;57728;50.448;18.824;2023-06-26T01:19:29;34.23;33.04;36.15;;
67398;Laerm;57728;50.448;18.824;2023-06-26T01:21:31;34.18;33.07;36.43;;
67398;Laerm;57728;50.448;18.824;2023-06-26T01:24:05;34.19;32.86;36.39;;
67398;Laerm;57728;50.448;18.824;2023-06-26T01:26:17;34.26;33.09;36.12;;
67398;Laerm;57728;50.448;18.824;2023-06-26T01:28:23;34.26;32.83;36.49;;
67398;Laerm;57728;50.448;18.824;2023-06-26T01:30:26;34.20;32.76;36.75;;
67398;Laerm;57728;50.448;18.824;2023-06-26T01:32:30;34.20;32.96;36.57;;
67398;Laerm;57728;50.448;18.824;2023-06-26T01:34:33;34.20;32.85;36.38;;
67398;Laerm;57728;50.448;18.824;2023-06-26T01:36:34;34.20;32.85;36.56;;
67398;Laerm;57728;50.448;18.824;2023-06-26T01:38:38;34.22;32.89;36.77;;
67398;Laerm;57728;50.448;18.824;2023-06-26T01:40:40;34.25;32.94;35.97;;
67398;Laerm;57728;50.448;18.824;2023-06-26T01:42:41;34.22;33.00;36.66;;
67398;Laerm;57728;50.448;18.824;2023-06-26T01:44:46;34.22;33.09;36.97;;
67398;Laerm;57728;50.448;18.824;2023-06-26T01:47:01;34.23;32.92;36.52;;
67398;Laerm;57728;50.448;18.824;2023-06-26T01:49:29;34.27;32.93;37.42;;
67398;Laerm;57728;50.448;18.824;2023-06-26T01:51:41;34.27;32.91;37.36;;
67398;Laerm;57728;50.448;18.824;2023-06-26T01:53:50;34.33;32.88;39.49;;
67398;Laerm;57728;50.448;18.824;2023-06-26T01:56:00;34.23;33.04;36.57;;
67398;Laerm;57728;50.448;18.824;2023-06-26T01:58:08;34.36;33.05;48.29;;
67398;Laerm;57728;50.448;18.824;2023-06-26T02:00:15;34.23;32.86;39.90;;
67398;Laerm;57728;50.448;18.824;2023-06-26T02:02:19;34.45;33.00;44.09;;
67398;Laerm;57728;50.448;18.824;2023-06-26T02:04:20;34.22;33.06;36.25;;
67398;Laerm;57728;50.448;18.824;2023-06-26T02:06:22;34.23;33.11;39.48;;
67398;Laerm;57728;50.448;18.824;2023-06-26T02:08:23;34.23;33.10;37.46;;
67398;Laerm;57728;50.448;18.824;2023-06-26T02:10:24;34.25;33.02;36.75;;
67398;Laerm;57728;50.448;18.824;2023-06-26T02:12:26;34.25;33.10;41.83;;
67398;Laerm;57728;50.448;18.824;2023-06-26T02:14:27;34.36;32.85;41.15;;
67398;Laerm;57728;50.448;18.824;2023-06-26T02:16:29;34.77;33.03;48.61;;
67398;Laerm;57728;50.448;18.824;2023-06-26T02:18:31;34.32;33.05;38.52;;
67398;Laerm;57728;50.448;18.824;2023-06-26T02:20:32;34.76;33.15;44.47;;
67398;Laerm;57728;50.448;18.824;2023-06-26T02:22:34;34.51;33.24;43.94;;
67398;Laerm;57728;50.448;18.824;2023-06-26T02:24:36;34.26;32.99;36.95;;
67398;Laerm;57728;50.448;18.824;2023-06-26T02:26:38;34.35;33.10;41.89;;
67398;Laerm;57728;50.448;18.824;2023-06-26T02:28:39;34.30;32.93;36.81;;
67398;Laerm;57728;50.448;18.824;2023-06-26T02:30:41;34.30;33.20;42.91;;
67398;Laerm;57728;50.448;18.824;2023-06-26T02:32:43;34.34;33.20;44.35;;
67398;Laerm;57728;50.448;18.824;2023-06-26T02:34:45;34.35;33.06;43.47;;
67398;Laerm;57728;50.448;18.824;2023-06-26T02:36:47;34.40;33.17;41.83;;
67398;Laerm;57728;50.448;18.824;2023-06-26T02:38:49;34.25;33.09;36.89;;
67398;Laerm;57728;50.448;18.824;2023-06-26T02:40:52;34.37;33.12;38.62;;
67398;Laerm;57728;50.448;18.824;2023-06-26T02:42:54;34.37;33.21;42.01;;
67398;Laerm;57728;50.448;18.824;2023-06-26T02:44:56;34.26;33.05;36.74;;
67398;Laerm;57728;50.448;18.824;2023-06-26T02:46:58;34.37;33.05;37.56;;
67398;Laerm;57728;50.448;18.824;2023-06-26T02:49:00;34.45;32.80;42.07;;
67398;Laerm;57728;50.448;18.824;2023-06-26T02:51:02;34.44;33.09;37.01;;
67398;Laerm;57728;50.448;18.824;2023-06-26T02:53:06;34.41;32.95;38.15;;
67398;Laerm;57728;50.448;18.824;2023-06-26T02:55:08;34.43;32.99;39.59;;
67398;Laerm;57728;50.448;18.824;2023-06-26T02:57:09;34.38;33.03;37.25;;
67398;Laerm;57728;50.448;18.824;2023-06-26T02:59:10;34.35;33.11;37.06;;
67398;Laerm;57728;50.448;18.824;2023-06-26T03:01:12;34.63;33.16;47.68;;
67398;Laerm;57728;50.448;18.824;2023-06-26T03:03:14;34.50;33.23;39.83;;
67398;Laerm;57728;50.448;18.824;2023-06-26T03:05:15;34.33;33.15;38.04;;
67398;Laerm;57728;50.448;18.824;2023-06-26T03:07:18;34.32;33.13;37.56;;
67398;Laerm;57728;50.448;18.824;2023-06-26T03:09:19;35.13;32.92;40.76;;
67398;Laerm;57728;50.448;18.824;2023-06-26T03:11:20;34.38;33.02;36.45;;
67398;Laerm;57728;50.448;18.824;2023-06-26T03:13:22;34.48;33.13;40.12;;
67398;Laerm;57728;50.448;18.824;2023-06-26T03:15:23;34.43;33.32;37.49;;
67398;Laerm;57728;50.448;18.824;2023-06-26T03:17:24;34.51;33.09;39.74;;
67398;Laerm;57728;50.448;18.824;2023-06-26T03:19:29;34.69;33.17;41.55;;
67398;Laerm;57728;50.448;18.824;2023-06-26T03:21:50;34.66;33.21;46.22;;
67398;Laerm;57728;50.448;18.824;2023-06-26T03:23:51;34.53;32.74;39.86;;
67398;Laerm;57728;50.448;18.824;2023-06-26T03:25:54;34.64;33.28;44.32;;
67398;Laerm;57728;50.448;18.824;2023-06-26T03:28:06;34.66;33.29;45.17;;
67398;Laerm;57728;50.448;18.824;2023-06-26T03:30:09;34.54;33.11;40.18;;
67398;Laerm;57728;50.448;18.824;2023-06-26T03:32:14;34.43;33.31;36.60;;
67398;Laerm;57728;50.448;18.824;2023-06-26T03:34:15;34.69;33.16;40.73;;
67398;Laerm;57728;50.448;18.824;2023-06-26T03:36:16;34.95;33.36;43.13;;
67398;Laerm;57728;50.448;18.824;2023-06-26T03:38:19;35.00;33.37;40.23;;
67398;Laerm;57728;50.448;18.824;2023-06-26T03:40:21;34.91;33.13;48.03;;
67398;Laerm;57728;50.448;18.824;2023-06-26T03:42:22;34.75;33.24;40.12;;
67398;Laerm;57728;50.448;18.824;2023-06-26T03:44:24;34.83;33.34;44.58;;
67398;Laerm;57728;50.448;18.824;2023-06-26T03:46:25;34.72;33.11;44.79;;
67398;Laerm;57728;50.448;18.824;2023-06-26T03:48:26;34.60;33.31;37.86;;
67398;Laerm;57728;50.448;18.824;2023-06-26T03:50:30;34.65;33.27;37.44;;
67398;Laerm;57728;50.448;18.824;2023-06-26T03:52:32;34.68;33.20;37.83;;
67398;Laerm;57728;50.448;18.824;2023-06-26T03:54:33;34.59;33.25;37.31;;
67398;Laerm;57728;50.448;18.824;2023-06-26T03:56:35;34.68;33.15;40.43;;
67398;Laerm;57728;50.448;18.824;2023-06-26T03:58:36;34.78;33.22;42.09;;
67398;Laerm;57728;50.448;18.824;2023-06-26T04:00:38;34.71;33.19;40.77;;
67398;Laerm;57728;50.448;18.824;2023-06-26T04:02:42;34.67;33.21;40.27;;
67398;Laerm;57728;50.448;18.824;2023-06-26T04:04:43;34.58;33.09;39.73;;
67398;Laerm;57728;50.448;18.824;2023-06-26T04:06:44;34.95;33.30;38.88;;
67398;Laerm;57728;50.448;18.824;2023-06-26T04:08:46;34.69;33.18;38.39;;
67398;Laerm;57728;50.448;18.824;2023-06-26T04:10:48;34.44;33.24;39.50;;
67398;Laerm;57728;50.448;18.824;2023-06-26T04:12:52;34.67;33.30;40.56;;
67398;Laerm;57728;50.448;18.824;2023-06-26T04:14:54;34.81;33.17;43.21;;
67398;Laerm;57728;50.448;18.824;2023-06-26T04:16:56;34.61;33.33;41.40;;
67398;Laerm;57728;50.448;18.824;2023-06-26T04:18:58;35.00;33.54;47.34;;
67398;Laerm;57728;50.448;18.824;2023-06-26T04:21:11;34.60;33.23;37.11;;
67398;Laerm;57728;50.448;18.824;2023-06-26T04:23:12;34.60;33.17;43.76;;
67398;Laerm;57728;50.448;18.824;2023-06-26T04:25:13;34.64;33.10;38.05;;
67398;Laerm;57728;50.448;18.824;2023-06-26T04:27:15;34.65;33.06;38.31;;
67398;Laerm;57728;50.448;18.824;2023-06-26T04:29:17;34.66;33.27;36.76;;
67398;Laerm;57728;50.448;18.824;2023-06-26T04:31:18;34.75;33.43;38.55;;
67398;Laerm;57728;50.448;18.824;2023-06-26T04:33:20;34.62;33.40;38.41;;
67398;Laerm;57728;50.448;18.824;2023-06-26T04:35:21;34.84;33.24;39.66;;
67398;Laerm;57728;50.448;18.824;2023-06-26T04:37:23;34.85;33.36;41.48;;
67398;Laerm;57728;50.448;18.824;2023-06-26T04:39:26;39.47;33.65;49.99;;
67398;Laerm;57728;50.448;18.824;2023-06-26T04:41:27;35.95;33.38;43.24;;
67398;Laerm;57728;50.448;18.824;2023-06-26T04:43:28;36.20;33.48;42.89;;
67398;Laerm;57728;50.448;18.824;2023-06-26T04:45:30;34.90;33.43;44.81;;
67398;Laerm;57728;50.448;18.824;2023-06-26T04:47:31;34.72;33.25;41.25;;
67398;Laerm;57728;50.448;18.824;2023-06-26T04:49:32;34.66;33.36;38.54;;
67398;Laerm;57728;50.448;18.824;2023-06-26T04:51:35;35.13;33.15;45.44;;
67398;Laerm;57728;50.448;18.824;2023-06-26T04:53:41;35.32;33.37;43.94;;
67398;Laerm;57728;50.448;18.824;2023-06-26T04:55:42;34.78;33.27;46.18;;
67398;Laerm;57728;50.448;18.824;2023-06-26T04:57:44;34.72;33.42;41.82;;
67398;Laerm;57728;50.448;18.824;2023-06-26T04:59:45;34.79;33.22;49.01;;
67398;Laerm;57728;50.448;18.824;2023-06-26T05:01:46;34.69;33.25;43.87;;
67398;Laerm;57728;50.448;18.824;2023-06-26T05:03:49;34.61;33.33;36.94;;
67398;Laerm;57728;50.448;18.824;2023-06-26T05:05:50;35.95;33.45;41.90;;
67398;Laerm;57728;50.448;18.824;2023-06-26T05:07:54;35.18;33.44;43.76;;
67398;Laerm;57728;50.448;18.824;2023-06-26T05:09:56;34.91;33.35;41.53;;
67398;Laerm;57728;50.448;18.824;2023-06-26T05:11:57;35.86;33.39;42.13;;
67398;Laerm;57728;50.448;18.824;2023-06-26T05:13:58;34.63;33.30;45.46;;
67398;Laerm;57728;50.448;18.824;2023-06-26T05:16:00;34.48;33.15;36.94;;
67398;Laerm;57728;50.448;18.824;2023-06-26T05:18:01;34.65;33.08;38.69;;
67398;Laerm;57728;50.448;18.824;2023-06-26T05:20:02;34.70;33.15;41.81;;
67398;Laerm;57728;50.448;18.824;2023-06-26T05:22:06;35.88;33.22;43.42;;
67398;Laerm;57728;50.448;18.824;2023-06-26T05:24:15;35.27;33.20;40.83;;
67398;Laerm;57728;50.448;18.824;2023-06-26T05:26:17;34.88;33.39;47.74;;
67398;Laerm;57728;50.448;18.824;2023-06-26T05:28:19;34.75;33.09;39.11;;
67398;Laerm;57728;50.448;18.824;2023-06-26T05:30:21;34.72;33.31;39.04;;
67398;Laerm;57728;50.448;18.824;2023-06-26T05:32:23;35.72;33.35;44.62;;
67398;Laerm;57728;50.448;18.824;2023-06-26T05:34:26;34.65;33.07;40.11;;
67398;Laerm;57728;50.448;18.824;2023-06-26T05:36:35;34.94;33.16;41.62;;
67398;Laerm;57728;50.448;18.824;2023-06-26T05:38:37;34.81;33.31;37.71;;
67398;Laerm;57728;50.448;18.824;2023-06-26T05:40:40;35.58;33.54;41.02;;
67398;Laerm;57728;50.448;18.824;2023-06-26T05:42:41;34.71;32.93;40.37;;
67398;Laerm;57728;50.448;18.824;2023-06-26T05:44:43;34.86;33.43;41.21;;
67398;Laerm;57728;50.448;18.824;2023-06-26T05:46:45;34.87;33.39;46.61;;
67398;Laerm;57728;50.448;18.824;2023-06-26T05:48:46;34.90;33.45;44.56;;
67398;Laerm;57728;50.448;18.824;2023-06-26T05:50:48;34.86;33.30;40.25;;
67398;Laerm;57728;50.448;18.824;2023-06-26T05:52:51;36.35;33.44;52.07;;
67398;Laerm;57728;50.448;18.824;2023-06-26T05:54:52;34.96;33.16;37.91;;
67398;Laerm;57728;50.448;18.824;2023-06-26T05:56:57;35.09;33.58;40.20;;
67398;Laerm;57728;50.448;18.824;2023-06-26T05:59:05;35.34;33.43;42.36;;
67398;Laerm;57728;50.448;18.824;2023-06-26T06:01:06;35.14;33.33;39.27;;
67398;Laerm;57728;50.448;18.824;2023-06-26T06:03:10;34.96;33.33;38.17;;
67398;Laerm;57728;50.448;18.824;2023-06-26T06:05:12;34.99;33.26;50.42;;
67398;Laerm;57728;50.448;18.824;2023-06-26T06:07:13;34.71;33.27;39.08;;
67398;Laerm;57728;50.448;18.824;2023-06-26T06:09:15;34.76;33.27;39.67;;
67398;Laerm;57728;50.448;18.824;2023-06-26T06:11:17;34.77;33.07;37.59;;
67398;Laerm;57728;50.448;18.824;2023-06-26T06:13:18;34.76;33.23;38.65;;
67398;Laerm;57728;50.448;18.824;2023-06-26T06:15:19;34.68;33.07;43.19;;
67398;Laerm;57728;50.448;18.824;2023-06-26T06:17:21;34.74;33.31;37.35;;
67398;Laerm;57728;50.448;18.824;2023-06-26T06:19:22;35.34;33.22;51.80;;
67398;Laerm;57728;50.448;18.824;2023-06-26T06:21:23;34.85;33.26;41.44;;
67398;Laerm;57728;50.448;18.824;2023-06-26T06:23:25;34.63;32.76;37.40;;
67398;Laerm;57728;50.448;18.824;2023-06-26T06:25:27;34.53;33.17;37.11;;
67398;Laerm;57728;50.448;18.824;2023-06-26T06:27:28;35.13;33.16;45.33;;
67398;Laerm;57728;50.448;18.824;2023-06-26T06:29:30;34.59;33.13;44.17;;
67398;Laerm;57728;50.448;18.824;2023-06-26T06:31:32;34.90;33.17;49.25;;
67398;Laerm;57728;50.448;18.824;2023-06-26T06:33:33;34.80;32.98;50.32;;
67398;Laerm;57728;50.448;18.824;2023-06-26T06:35:36;34.90;33.27;45.49;;
67398;Laerm;57728;50.448;18.824;2023-06-26T06:37:38;34.70;33.13;39.87;;
67398;Laerm;57728;50.448;18.824;2023-06-26T06:39:39;34.61;33.29;40.49;;
67398;Laerm;57728;50.448;18.824;2023-06-26T06:41:41;34.67;33.14;40.64;;
67398;Laerm;57728;50.448;18.824;2023-06-26T06:43:43;34.65;33.10;38.85;;
67398;Laerm;57728;50.448;18.824;2023-06-26T06:45:45;34.58;33.14;43.04;;
67398;Laerm;57728;50.448;18.824;2023-06-26T06:47:47;35.10;33.01;51.44;;
67398;Laerm;57728;50.448;18.824;2023-06-26T06:49:51;36.14;32.62;53.80;;
67398;Laerm;57728;50.448;18.824;2023-06-26T06:51:52;37.26;32.98;55.43;;
67398;Laerm;57728;50.448;18.824;2023-06-26T06:53:54;37.95;32.89;60.16;;
67398;Laerm;57728;50.448;18.824;2023-06-26T06:55:55;38.00;33.00;52.32;;
67398;Laerm;57728;50.448;18.824;2023-06-26T06:57:56;34.86;32.85;44.31;;
67398;Laerm;57728;50.448;18.824;2023-06-26T06:59:58;34.41;32.98;42.38;;
67398;Laerm;57728;50.448;18.824;2023-06-26T07:01:59;34.18;32.84;36.65;;
67398;Laerm;57728;50.448;18.824;2023-06-26T07:04:01;34.27;32.95;42.21;;
67398;Laerm;57728;50.448;18.824;2023-06-26T07:06:05;34.15;32.96;40.68;;
67398;Laerm;57728;50.448;18.824;2023-06-26T07:08:06;34.08;32.87;36.09;;
67398;Laerm;57728;50.448;18.824;2023-06-26T07:10:11;34.01;32.75;35.88;;
67398;Laerm;57728;50.448;18.824;2023-06-26T07:12:13;34.23;32.84;41.75;;
67398;Laerm;57728;50.448;18.824;2023-06-26T07:14:14;33.96;32.61;35.88;;
67398;Laerm;57728;50.448;18.824;2023-06-26T07:16:16;34.21;32.76;38.89;;
67398;Laerm;57728;50.448;18.824;2023-06-26T07:18:18;34.23;32.85;37.75;;
67398;Laerm;57728;50.448;18.824;2023-06-26T07:20:19;34.35;32.97;42.76;;
67398;Laerm;57728;50.448;18.824;2023-06-26T07:22:20;34.43;32.98;41.36;;
67398;Laerm;57728;50.448;18.824;2023-06-26T07:24:22;34.22;32.80;40.54;;
67398;Laerm;57728;50.448;18.824;2023-06-26T07:26:23;34.12;32.89;37.78;;
67398;Laerm;57728;50.448;18.824;2023-06-26T07:28:24;34.51;32.96;39.62;;
67398;Laerm;57728;50.448;18.824;2023-06-26T07:30:26;34.28;33.09;39.02;;
67398;Laerm;57728;50.448;18.824;2023-06-26T07:32:28;34.71;32.96;44.59;;
67398;Laerm;57728;50.448;18.824;2023-06-26T07:34:29;34.63;32.89;43.86;;
67398;Laerm;57728;50.448;18.824;2023-06-26T07:36:31;34.28;32.69;38.65;;
67398;Laerm;57728;50.448;18.824;2023-06-26T07:38:32;36.90;33.21;44.01;;
67398;Laerm;57728;50.448;18.824;2023-06-26T07:40:33;46.96;33.92;55.59;;
67398;Laerm;57728;50.448;18.824;2023-06-26T07:42:36;43.15;33.70;49.53;;
67398;Laerm;57728;50.448;18.824;2023-06-26T07:44:37;41.73;33.99;48.07;;
67398;Laerm;57728;50.448;18.824;2023-06-26T07:46:38;35.87;33.03;43.30;;
67398;Laerm;57728;50.448;18.824;2023-06-26T07:48:40;35.11;33.03;40.00;;
67398;Laerm;57728;50.448;18.824;2023-06-26T07:50:42;35.11;33.05;41.55;;
67398;Laerm;57728;50.448;18.824;2023-06-26T07:52:43;34.84;32.75;40.14;;
67398;Laerm;57728;50.448;18.824;2023-06-26T07:54:45;34.77;32.94;43.51;;
67398;Laerm;57728;50.448;18.824;2023-06-26T07:56:56;40.26;33.35;48.72;;
67398;Laerm;57728;50.448;18.824;2023-06-26T07:58:58;41.81;33.45;52.80;;
67398;Laerm;57728;50.448;18.824;2023-06-26T08:01:02;44.57;33.21;55.91;;
67398;Laerm;57728;50.448;18.824;2023-06-26T08:03:04;40.19;33.42;48.45;;
67398;Laerm;57728;50.448;18.824;2023-06-26T08:05:08;39.03;33.13;45.69;;
67398;Laerm;57728;50.448;18.824;2023-06-26T08:07:10;38.12;33.10;45.35;;
67398;Laerm;57728;50.448;18.824;2023-06-26T08:09:11;35.89;33.41;41.18;;
67398;Laerm;57728;50.448;18.824;2023-06-26T08:11:13;35.64;33.26;47.58;;
67398;Laerm;57728;50.448;18.824;2023-06-26T08:13:15;36.37;32.80;52.06;;
67398;Laerm;57728;50.448;18.824;2023-06-26T08:15:16;35.10;32.75;43.84;;
67398;Laerm;57728;50.448;18.824;2023-06-26T08:17:18;34.88;33.11;42.74;;
67398;Laerm;57728;50.448;18.824;2023-06-26T08:19:20;35.07;33.27;39.10;;
67398;Laerm;57728;50.448;18.824;2023-06-26T08:21:21;35.58;33.17;43.55;;
67398;Laerm;57728;50.448;18.824;2023-06-26T08:23:22;34.64;32.86;39.64;;
67398;Laerm;57728;50.448;18.824;2023-06-26T08:25:26;34.59;33.01;43.30;;
67398;Laerm;57728;50.448;18.824;2023-06-26T08:27:27;34.65;33.09;40.87;;
67398;Laerm;57728;50.448;18.824;2023-06-26T08:29:28;34.50;32.87;42.73;;
67398;Laerm;57728;50.448;18.824;2023-06-26T08:31:30;34.71;33.18;43.60;;
67398;Laerm;57728;50.448;18.824;2023-06-26T08:33:35;34.52;33.03;41.85;;
67398;Laerm;57728;50.448;18.824;2023-06-26T08:35:36;34.58;32.98;41.69;;
67398;Laerm;57728;50.448;18.824;2023-06-26T08:37:38;36.81;33.12;55.72;;
67398;Laerm;57728;50.448;18.824;2023-06-26T08:39:39;36.81;33.08;55.88;;
67398;Laerm;57728;50.448;18.824;2023-06-26T08:41:40;36.53;33.03;54.37;;
67398;Laerm;57728;50.448;18.824;2023-06-26T08:43:43;35.68;33.30;46.43;;
67398;Laerm;57728;50.448;18.824;2023-06-26T08:45:44;35.46;33.09;48.24;;
67398;Laerm;57728;50.448;18.824;2023-06-26T08:47:53;35.25;33.01;46.54;;
67398;Laerm;57728;50.448;18.824;2023-06-26T08:50:12;35.40;33.07;48.08;;
67398;Laerm;57728;50.448;18.824;2023-06-26T08:52:22;35.78;33.04;50.78;;
67398;Laerm;57728;50.448;18.824;2023-06-26T08:54:34;36.28;33.20;46.51;;
67398;Laerm;57728;50.448;18.824;2023-06-26T08:56:47;36.84;33.18;51.05;;
67398;Laerm;57728;50.448;18.824;2023-06-26T08:58:50;36.74;33.29;47.29;;
67398;Laerm;57728;50.448;18.824;2023-06-26T09:00:52;37.98;33.39;51.52;;
67398;Laerm;57728;50.448;18.824;2023-06-26T09:02:56;35.98;33.22;48.56;;
67398;Laerm;57728;50.448;18.824;2023-06-26T09:04:57;34.85;33.12;50.98;;
67398;Laerm;57728;50.448;18.824;2023-06-26T09:06:59;37.06;33.62;50.72;;
67398;Laerm;57728;50.448;18.824;2023-06-26T09:09:01;38.77;34.09;52.24;;
67398;Laerm;57728;50.448;18.824;2023-06-26T09:11:03;38.92;34.76;50.42;;
67398;Laerm;57728;50.448;18.824;2023-06-26T09:13:07;37.61;33.90;48.90;;
67398;Laerm;57728;50.448;18.824;2023-06-26T09:15:09;39.43;33.88;58.45;;
67398;Laerm;57728;50.448;18.824;2023-06-26T09:17:13;38.46;33.38;53.09;;
67398;Laerm;57728;50.448;18.824;2023-06-26T09:19:15;36.89;33.59;50.58;;
67398;Laerm;57728;50.448;18.824;2023-06-26T09:21:18;36.14;33.83;51.33;;
67398;Laerm;57728;50.448;18.824;2023-06-26T09:23:21;35.50;33.33;50.82;;
67398;Laerm;57728;50.448;18.824;2023-06-26T09:25:22;36.54;33.54;51.20;;
67398;Laerm;57728;50.448;18.824;2023-06-26T09:27:25;37.67;33.37;52.28;;
67398;Laerm;57728;50.448;18.824;2023-06-26T09:29:27;36.64;33.11;51.36;;
67398;Laerm;57728;50.448;18.824;2023-06-26T09:31:29;35.31;32.99;51.18;;
67398;Laerm;57728;50.448;18.824;2023-06-26T09:33:37;34.72;33.28;40.79;;
67398;Laerm;57728;50.448;18.824;2023-06-26T09:35:38;36.80;33.18;50.88;;
67398;Laerm;57728;50.448;18.824;2023-06-26T09:37:39;34.44;32.76;40.44;;
67398;Laerm;57728;50.448;18.824;2023-06-26T09:39:42;34.91;33.01;44.92;;
67398;Laerm;57728;50.448;18.824;2023-06-26T09:41:43;35.08;33.01;47.84;;
67398;Laerm;57728;50.448;18.824;2023-06-26T09:43:47;35.14;32.95;47.93;;
67398;Laerm;57728;50.448;18.824;2023-06-26T09:45:50;34.62;33.01;42.35;;
67398;Laerm;57728;50.448;18.824;2023-06-26T09:47:52;34.95;33.10;47.74;;
67398;Laerm;57728;50.448;18.824;2023-06-26T09:49:53;34.78;32.91;45.17;;
67398;Laerm;57728;50.448;18.824;2023-06-26T09:51:56;34.70;33.00;40.14;;
67398;Laerm;57728;50.448;18.824;2023-06-26T09:54:03;34.42;32.96;44.92;;
67398;Laerm;57728;50.448;18.824;2023-06-26T09:56:16;34.40;32.85;42.73;;
67398;Laerm;57728;50.448;18.824;2023-06-26T09:58:24;35.17;33.04;44.59;;
67398;Laerm;57728;50.448;18.824;2023-06-26T10:00:28;34.74;32.91;40.03;;
67398;Laerm;57728;50.448;18.824;2023-06-26T10:02:32;37.70;32.99;53.55;;
67398;Laerm;57728;50.448;18.824;2023-06-26T10:04:35;34.92;33.10;43.49;;
67398;Laerm;57728;50.448;18.824;2023-06-26T10:06:46;34.44;32.99;40.71;;
67398;Laerm;57728;50.448;18.824;2023-06-26T10:08:50;34.45;32.87;39.45;;
67398;Laerm;57728;50.448;18.824;2023-06-26T10:10:53;34.66;33.02;41.86;;
67398;Laerm;57728;50.448;18.824;2023-06-26T10:13:04;34.60;32.95;38.62;;
67398;Laerm;57728;50.448;18.824;2023-06-26T10:15:10;34.43;32.80;39.57;;
67398;Laerm;57728;50.448;18.824;2023-06-26T10:17:20;34.37;32.86;38.66;;
67398;Laerm;57728;50.448;18.824;2023-06-26T10:19:24;34.69;32.97;43.11;;
67398;Laerm;57728;50.448;18.824;2023-06-26T10:21:29;34.58;32.91;41.48;;
67398;Laerm;57728;50.448;18.824;2023-06-26T10:23:38;34.59;32.90;41.75;;
67398;Laerm;57728;50.448;18.824;2023-06-26T10:25:47;34.63;32.98;39.55;;
67398;Laerm;57728;50.448;18.824;2023-06-26T10:27:56;34.54;32.88;39.15;;
67398;Laerm;57728;50.448;18.824;2023-06-26T10:30:05;34.74;32.78;48.09;;
67398;Laerm;57728;50.448;18.824;2023-06-26T10:32:13;34.81;33.07;48.36;;
67398;Laerm;57728;50.448;18.824;2023-06-26T10:34:15;36.14;33.29;49.00;;
67398;Laerm;57728;50.448;18.824;2023-06-26T10:36:21;35.22;33.24;48.82;;
67398;Laerm;57728;50.448;18.824;2023-06-26T10:39:04;34.64;32.73;41.60;;
67398;Laerm;57728;50.448;18.824;2023-06-26T10:41:11;34.64;33.18;40.79;;
67398;Laerm;57728;50.448;18.824;2023-06-26T10:43:15;34.66;33.12;47.83;;
67398;Laerm;57728;50.448;18.824;2023-06-26T10:45:21;34.77;32.73;40.08;;
67398;Laerm;57728;50.448;18.824;2023-06-26T10:47:30;36.90;33.09;56.14;;
67398;Laerm;57728;50.448;18.824;2023-06-26T10:49:37;34.65;33.05;45.35;;
67398;Laerm;57728;50.448;18.824;2023-06-26T10:51:48;34.55;33.07;38.45;;
67398;Laerm;57728;50.448;18.824;2023-06-26T10:53:56;34.33;32.86;42.39;;
67398;Laerm;57728;50.448;18.824;2023-06-26T10:56:02;35.47;32.66;47.39;;
67398;Laerm;57728;50.448;18.824;2023-06-26T10:58:04;35.09;32.93;46.40;;
67398;Laerm;57728;50.448;18.824;2023-06-26T11:00:10;37.30;33.17;50.58;;
67398;Laerm;57728;50.448;18.824;2023-06-26T11:02:12;35.63;32.97;54.40;;
67398;Laerm;57728;50.448;18.824;2023-06-26T11:04:14;36.19;32.93;57.82;;
67398;Laerm;57728;50.448;18.824;2023-06-26T11:06:20;37.99;32.87;51.60;;
67398;Laerm;57728;50.448;18.824;2023-06-26T11:08:54;34.61;32.95;41.15;;
67398;Laerm;57728;50.448;18.824;2023-06-26T11:11:00;34.62;32.88;45.02;;
67398;Laerm;57728;50.448;18.824;2023-06-26T11:13:05;34.33;32.55;40.46;;
67398;Laerm;57728;50.448;18.824;2023-06-26T11:15:13;34.44;32.96;41.66;;
67398;Laerm;57728;50.448;18.824;2023-06-26T11:17:18;34.00;32.52;39.52;;
67398;Laerm;57728;50.448;18.824;2023-06-26T11:19:20;34.27;32.74;38.11;;